Timeline UpdatesTrip UpdatesNews PostsPvt PostsTravel TipsAdmin PostsConv PostsFollowed PostsChat RequestsBlog PostsPNR Posts

Disclaimer
Search
 
 
Wed Apr 16, 2014 18:36:35 ISTHomeTrainsΣChainsAtlasPNRForumGalleryNewsFAQTripsMembersLoginFeedback
No Recent News for this Train
Other Trains in the News **new
Latest...
Detached at Erode Junction to run as separate train till Tirunelveli.
Fri Mar 25, 2011 (08:02PM)
⇐ Return Journey: Train# 16787

16688-Slip/Navyug Express Slip

Dec 12 2013 (3:39AM)
Change Departure Station:
Change Arrival Station:
Post a Train Travel TipPost a Train Travel Tip **new
Post a Comment/Question/Picture/VideoPost a Comment/Question/Picture/Video
Pantry/Catering
✓ Pantry Car Avbl
✓ Catering Avbl
PC will available till ED/Erode Juntion
Loco/Rake Reversals
ED/Erode Junction (4);
RSA - Rake Sharing
NO RSA
Rake/Coach Composition
Coach postions:; JAT-ED ==>ENG-SRD-UR-UR-A1-B2-B1-S1-S2-S3-S4-S5-PC-SRD-S6-S7-S8-S9-A2-UR-SLR ; Entry# 962626; Slip coaches from ED to TEN==>; S6-S7-S8-S9-A2-UR-SLR-ENG
Loco
WDM3A-TKD Shed (JAT-NDLS) WAP4-ED Shed (NDLS-ED)
News    PNR    Forum    Time-Table    Availability    Fare Chart    Map    Arr/Dep History    Trips    Gallery    ΣChains    X/O    Timeline    
Travel Time: 4h 33m    9 halts    Distance: 251 km    Avg Speed: 55 km/hr
Type: Mail/Express
Zone: SR/Southern
Departs @ 23:45 (Avg on time)
Platform# 2
    T  
Jammu Tawi/JAT 
Arrives @ 04:18 +1 night (Avg 9m late)
Platform# 1
     F 
Phillaur Junction/PHR 

9 halts. 46 intermediate Stations between Jammu Tawi and Phillaur Junction

Show ALL intermediate Stations  Show Old Time-Table

#CodeStation NameX/OArrivesAvgDepartsAvgHaltPFDay#KmSpeedElevZoneAddress
1JAT»Jammu Tawi (3)»  -23:45+0210.065337mNRJammu 180002, Jammu and Kashmir
2SMBXSamba (2)  00:15+1200:17+122m1232.764365mNRDist. Samba, Jammu and Kashmir
3KTHUKathua (2)  00:58+1301:00+132m2276.349396mNRdistt. kathua, Jammu and Kashmir
4MDPBMadhopur Punjab (2)  01:10+1301:12+142m1284.456357mNRMadhopur, Punjab
5PTKCPathankot Cantt (3)  01:28+1701:33+185m1299.457328mNRPathankot By Pass Ph:0186-2251594, Punjab
6MEXMukerian (3)  02:15+1502:17+152m12139.353257mNRMukerian distt. hosiharpur, Punjab
7DZADasuya (2)X  02:34+1202:36+122m12154.358251mNRDasuya distt. hoshiarpur, Punjab
8TDOTanda Urmar (3)  02:52+1002:54+102m22169.762239mNRUrmar Tanda, Punjab
9JRCJalandhar Cantt. Junction (3)X  03:35+703:40+75m32211.954239mNRNear Rama Mandi, Punjab
10PGWPhagwara Junction (3)  03:58+504:00+52m12228.275245mNRPhagwara, Punjab
11PHR•Phillaur Junction (3)•X  04:18+904:20+92m12250.820246mNRPhillaur, Punjab
12LDHLudhiana Junction (7)X  05:00-605:15+015m52263.963246mNRLudhiana 141001, Punjab
13QRPKila Raipur (1)  05:32+1005:34+102m12281.651262mNRDelhon Pakhowal Rd, Punjab
14AHHAhmadgarh (1)  05:43+1405:45+192m12289.343256mNRAhmedgarh, Punjab
15METMalerkotla (2)  06:13+1306:15+152m--2309.150248mNRMalerkotla., Punjab
16DUIDhuri Junction (4)X  06:35+1807:00+2225m--2326.064248mNRDhuri, Punjab
17SAGSangrur (2)X  07:15+3107:17+332m12342.035239mNRSangrur, Punjab
18SFMSunam (1)  07:39+2507:41+252m12354.871235mNRSunam, Punjab
19LHALehra Gaga (1)  07:59+2008:01+202m12376.119227mNRSangrur, Punjab
20JHLJakhal Junction  08:55+609:00+205m--2393.067225mNRJakhal, Haryana
21TUNTohana (2)  09:11+2309:13+232m--2405.261232mNRTohana, Haryana
22NRWNarwana Junction (4)  09:38+2109:40+212m--2430.765235mNRWay to Narwana, Haryana
23UCAUchana  09:54+1909:56+192m--2445.958225mNRDistrict Jind, Haryana
24BZOBarsola  10:06+2110:08+202m--2455.534224mNRDistrict Jind, Haryana
25JINDJind Junction (3)X  10:24+1410:27+143m--2464.667222mNR126102., Haryana
26JNAJulana  10:50+2510:52+252m--2490.336226mNRJulana, Haryana
27ROKRohtak Junction (3)  11:45+1111:47+112m--2521.776220mNRRohtak, Haryana
28BGZBahadurgarh  12:19+1512:21+152m--2562.034220mNRBahadurgarh, Haryana
29SSBShakur Basti  12:56+412:58+72m--2581.918216mNRPitampura, Delhi NCT
30NDLSNew Delhi (16)X13:35+1314:30+1055m92592.829215mNRAjmeri Gate/Paharganj, Delhi NCT
31NZMDelhi Hazrat Nizamuddin (7)  14:45+2214:55+1610m42600.229209mNRNizamuddin East/Sarai KaleKhan Bus Terminal, Delhi NCT
32FDBFaridabad (4)X  15:38+1415:40+302m32620.949206mNRFaridabad, Haryana
33AGCAgra Cantt. (6)O  19:05+1319:10+145m12787.890174mNCRAgra, Uttar Pradesh
34DHODholpur Junction (3)X  19:45+1919:47+192m32840.462177mNCRDholpur, Rajasthan
35GWLGwalior Junction (4)  20:50+1220:55+175m12905.862214mNCRGwalior, Madhya Pradesh
36JHSJhansi Junction (7)XO  22:30+2622:40+2710m--21003.569259mNCRJhansi, Uttar Pradesh
37BPLBhopal Junction (6)X  02:55+1903:00+215m131295.338497mWCRBhopal, Madhya Pradesh
38ETItarsi Junction (7)X  05:25+205:30+35m--31387.058329mWCRItarsi 461111, Madhya Pradesh
39NGPNagpur Junction (9)  10:35+710:45+710m231684.274314mCRNagpur 440001, Maharashtra
40SEGMSewagram Junction (5)  11:47+1211:49+122m--31760.466264mCRWardha, Maharashtra
41CDChandrapur Maharashtra  13:36+713:38+92m131879.016194mCRChandrapur 442401, Maharashtra
42BPQBalharshah Junction (5)  14:30+214:40+1010m331892.774188mCRBallarpur. Ph : 07172 - 240341, Maharashtra
43RDMRamagundam (3)  16:35+2416:37+292m--32034.550170mSCRKarimnagar Dist. Ph : 08728 - 255237, Andhra Pradesh
44WLWarangal (3)X  18:38+3618:43+365m132135.767271mSCRWarangal., Andhra Pradesh
45KMTKhammam (2)X  20:19+4020:20+411m132243.331118mSCRKhammam 507001, Andhra Pradesh
46BZAVijayawada Junction (10)X  23:35+2623:45+2810m732343.67524mSCRVijayawada 520001, Andhra Pradesh
47TELTenali Junction (5)X  00:10+3800:12+392m242374.96916mSCRTel: 08644-227834, Andhra Pradesh
48OGLOngole (3)  01:45+3501:47+342m342481.97712mSCROngole ph.no . 08592-280202, Andhra Pradesh
49NLRNellore (4)  03:18+2003:20+332m342598.73421mSCRNellore, Andhra Pradesh
50GDRGudur Junction (3)  04:28+1304:30+142m142637.17119mSCRGudur, Andhra Pradesh
51RURenigunta Junction (5)X  05:40+2405:50+2610m242720.540113mSCRChittoor District, Andhra Pradesh
52TPTYTirupati Main (5)  06:05+3206:10+375m242730.455150mSCRChittoor Distt, Andhra Pradesh
53CTOChittoor (3)  07:28+3807:30+382m--42802.323305mSCR517001., Andhra Pradesh
54KPDKatpadi Junction (5)X  08:55+708:57+112m342835.471213mSRVellore 632007. Phone No: 0416-2642628, Tamil Nadu
55JTJJolarpettai Junction (5)X  10:08+1110:10+112m--42919.280405mSRJolarpettai jtn. Ph No.04179-241221, Tamil Nadu
56SASalem Junction (6)  11:40+2611:45+265m--43039.453283mSRSalem, Tamil Nadu
57EDErode Junction (4)↵¶12:55+2713:40+945m343101.158175mSRErode ph.no: 0424-2256111, Tamil Nadu
58KRRKarur Junction (5)  14:47-14:50-3m--43166.140121mSRKarur Junction ph.no . 04324-274106, Tamil Nadu
59TPJTiruchchirappalli Junction (8)  16:45-16:50-5m143242.48185mSRTiruchchirapalli ph.no.0431-2413363, Tamil Nadu
60DGDindigul Junction (4)  18:00-18:05-5m--43336.774287mSRDindigul ph.no.0451-2322045, Tamil Nadu
61KQNKodaikanal Road (4)  18:23-18:25-2m--43358.960242mSRDIndigal Dist, Tamil Nadu
62MDUMadurai Junction (8)  19:05-19:10-5m--43399.174139mSRMadurai 625001, Tamil Nadu
63VPTVirudunagar Junction (3)X  19:45-19:47-2m--43442.339108mSRPh No: 04562-243747, Tamil Nadu
64SRTSatur (2)X  20:29-20:31-2m--43469.64665mSRPh No:04562 - 260243, Tamil Nadu
65CVPKovilpattiX  20:59-21:01-2m--43491.01890mSRKovilpatti, Tamil Nadu
66MEJVanchi Maniyachchi Junction (3)  22:59-23:00-1m--43527.21970mSRThoothukudi, Tamil Nadu
67TENTirunelveli Junction (5)  00:30----53555.6-45mSRTirunelveli-627001, Tamil Nadu
Scroll to Top
Scroll to Bottom